createdAt,value
2019-02-15T00:00:13.836Z,0.90
2019-02-15T00:02:42.483Z,0.90
2019-02-15T00:05:11.082Z,0.90
2019-02-15T00:07:39.652Z,0.90
2019-02-15T00:10:08.164Z,0.80
2019-02-15T00:12:36.726Z,0.80
2019-02-15T00:15:06.356Z,0.80
2019-02-15T00:17:51.460Z,0.80
2019-02-15T00:20:36.971Z,0.70
2019-02-15T00:23:05.549Z,0.70
2019-02-15T00:25:34.099Z,0.70
2019-02-15T00:28:02.684Z,0.70
2019-02-15T00:30:31.298Z,0.70
2019-02-15T00:32:59.934Z,0.70
2019-02-15T00:35:28.514Z,0.70
2019-02-15T00:37:57.164Z,0.60
2019-02-15T00:40:25.725Z,0.60
2019-02-15T00:42:54.156Z,0.60
2019-02-15T00:45:24.410Z,0.60
2019-02-15T00:47:57.072Z,0.60
2019-02-15T00:50:27.152Z,0.60
2019-02-15T00:53:04.204Z,0.50
2019-02-15T00:55:43.042Z,0.50
2019-02-15T00:58:13.179Z,0.50
2019-02-15T01:00:49.754Z,0.50
2019-02-15T01:03:23.012Z,0.50
2019-02-15T01:05:58.908Z,0.50
2019-02-15T01:08:35.043Z,0.40
2019-02-15T01:11:07.667Z,0.40
2019-02-15T01:13:36.235Z,0.40
2019-02-15T01:16:04.884Z,0.40
2019-02-15T01:18:33.387Z,0.40
2019-02-15T01:21:01.956Z,0.40
2019-02-15T01:23:30.572Z,0.40
2019-02-15T01:26:00.780Z,0.40
2019-02-15T01:28:30.802Z,0.40
2019-02-15T01:31:17.638Z,0.40
2019-02-15T01:33:47.843Z,0.40
2019-02-15T01:36:20.764Z,0.30
2019-02-15T01:38:50.794Z,0.30
2019-02-15T01:41:24.124Z,0.30
2019-02-15T01:43:54.415Z,0.20
2019-02-15T01:46:24.660Z,0.20
2019-02-15T01:48:53.373Z,0.20
2019-02-15T01:51:22.051Z,0.10
2019-02-15T01:53:50.691Z,0.10
2019-02-15T01:56:19.430Z,0.00
2019-02-15T01:58:48.053Z,0.10
2019-02-15T02:01:18.211Z,0.10
2019-02-15T02:03:46.844Z,0.10
2019-02-15T02:06:15.386Z,0.00
2019-02-15T02:08:43.738Z,0.00
2019-02-15T02:11:12.371Z,0.00
2019-02-15T02:13:49.047Z,0.00
2019-02-15T02:16:11.073Z,0.00
2019-02-15T02:18:39.586Z,0.00
2019-02-15T02:21:08.183Z,0.00
2019-02-15T02:23:36.756Z,0.00
2019-02-15T02:26:05.397Z,0.00
2019-02-15T02:28:33.987Z,-0.10
2019-02-15T02:31:02.564Z,-0.10
2019-02-15T02:33:31.261Z,-0.10
2019-02-15T02:35:59.746Z,-0.10
2019-02-15T02:38:28.259Z,-0.10
2019-02-15T02:40:56.964Z,-0.20
2019-02-15T02:43:25.633Z,-0.20
2019-02-15T02:45:54.178Z,-0.20
2019-02-15T02:48:22.733Z,-0.20
2019-02-15T02:50:51.314Z,-0.20
2019-02-15T02:53:19.796Z,-0.10
2019-02-15T02:55:48.330Z,-0.10
2019-02-15T02:58:16.772Z,-0.10
2019-02-15T03:00:45.234Z,-0.10
2019-02-15T03:03:13.786Z,-0.10
2019-02-15T03:05:42.202Z,-0.10
2019-02-15T03:08:10.652Z,-0.20
2019-02-15T03:10:39.205Z,-0.20
2019-02-15T03:13:07.788Z,-0.30
2019-02-15T03:15:36.290Z,-0.30
2019-02-15T03:18:04.884Z,-0.30
2019-02-15T03:20:33.372Z,-0.30
2019-02-15T03:23:01.932Z,-0.40
2019-02-15T03:25:30.475Z,-0.40
2019-02-15T03:27:58.926Z,-0.40
2019-02-15T03:30:27.495Z,-0.40
2019-02-15T03:32:56.198Z,-0.40
2019-02-15T03:35:24.854Z,-0.40
2019-02-15T03:37:55.010Z,-0.40
2019-02-15T03:40:25.279Z,-0.40
2019-02-15T03:42:53.813Z,-0.40
2019-02-15T03:45:22.363Z,-0.40
2019-02-15T03:47:51.028Z,-0.40
2019-02-15T03:50:19.524Z,-0.40
2019-02-15T03:52:48.093Z,-0.40
2019-02-15T03:55:16.787Z,-0.40
2019-02-15T03:57:45.455Z,-0.50
2019-02-15T04:00:14.036Z,-0.60
2019-02-15T04:02:42.677Z,-0.60
2019-02-15T04:05:11.204Z,-0.60
2019-02-15T04:07:39.779Z,-0.60
2019-02-15T04:10:09.324Z,-0.60
2019-02-15T04:12:37.916Z,-0.70
2019-02-15T04:15:07.780Z,-0.70
2019-02-15T04:17:36.324Z,-0.70
2019-02-15T04:20:07.596Z,-0.60
2019-02-15T04:22:36.246Z,-0.70
2019-02-15T04:25:05.485Z,-0.70
2019-02-15T04:27:33.988Z,-0.70
2019-02-15T04:30:02.588Z,-0.70
2019-02-15T04:32:31.253Z,-0.70
2019-02-15T04:34:59.821Z,-0.70
2019-02-15T04:37:28.394Z,-0.70
2019-02-15T04:39:56.860Z,-0.70
2019-02-15T04:42:25.427Z,-0.70
2019-02-15T04:44:54.079Z,-0.70
2019-02-15T04:47:22.626Z,-0.70
2019-02-15T04:49:54.340Z,-0.70
2019-02-15T04:52:25.478Z,-0.70
2019-02-15T04:54:54.110Z,-0.70
2019-02-15T04:57:22.625Z,-0.80
2019-02-15T04:59:51.102Z,-0.80
2019-02-15T05:02:19.859Z,-0.80
2019-02-15T05:04:48.479Z,-0.80
2019-02-15T05:07:16.950Z,-0.80
2019-02-15T05:09:45.474Z,-0.80
2019-02-15T05:12:14.101Z,-0.80
2019-02-15T05:14:52.443Z,-0.80
2019-02-15T05:17:12.821Z,-0.80
2019-02-15T05:19:41.330Z,-0.80
2019-02-15T05:22:09.749Z,-0.80
2019-02-15T05:24:38.371Z,-0.80
2019-02-15T05:27:06.876Z,-0.80
2019-02-15T05:29:35.370Z,-0.90
2019-02-15T05:32:03.929Z,-0.90
2019-02-15T05:34:32.412Z,-0.90
2019-02-15T05:37:00.934Z,-0.90
2019-02-15T05:39:29.514Z,-0.90
2019-02-15T05:41:58.028Z,-0.90
2019-02-15T05:44:26.635Z,-0.90
2019-02-15T05:46:55.250Z,-1.00
2019-02-15T05:49:23.834Z,-1.00
2019-02-15T05:51:52.479Z,-1.00
2019-02-15T05:54:21.078Z,-1.00
2019-02-15T05:56:49.717Z,-1.10
2019-02-15T05:59:18.187Z,-1.10
2019-02-15T06:01:47.109Z,-1.00
2019-02-15T06:04:19.013Z,-1.10
2019-02-15T06:06:48.221Z,-1.00
2019-02-15T06:09:16.870Z,-1.00
2019-02-15T06:11:45.388Z,-1.00
2019-02-15T06:14:14.048Z,-1.00
2019-02-15T06:16:42.635Z,-1.10
2019-02-15T06:19:11.181Z,-1.00
2019-02-15T06:21:39.774Z,-1.10
2019-02-15T06:24:08.477Z,-1.00
2019-02-15T06:26:37.026Z,-1.00
2019-02-15T06:29:05.588Z,-1.10
2019-02-15T06:31:34.242Z,-1.10
2019-02-15T06:34:02.886Z,-1.10
2019-02-15T06:36:33.044Z,-1.20
2019-02-15T06:39:03.759Z,-1.10
2019-02-15T06:41:32.315Z,-1.20
2019-02-15T06:44:00.948Z,-1.20
2019-02-15T06:46:29.524Z,-1.10
2019-02-15T06:48:58.188Z,-1.10
2019-02-15T06:51:26.746Z,-1.10
2019-02-15T06:53:55.371Z,-1.10
2019-02-15T06:56:23.860Z,-1.00
2019-02-15T06:58:56.780Z,-1.00
2019-02-15T07:01:26.993Z,-1.00
2019-02-15T07:04:09.323Z,-1.00
2019-02-15T07:06:37.992Z,-1.00
2019-02-15T07:09:06.576Z,-0.90
2019-02-15T07:11:35.068Z,-1.00
2019-02-15T07:14:03.725Z,-1.00
2019-02-15T07:16:32.220Z,-1.00
2019-02-15T07:19:00.756Z,-1.00
2019-02-15T07:21:29.369Z,-1.00
2019-02-15T07:23:58.036Z,-0.90
2019-02-15T07:26:26.683Z,-0.90
2019-02-15T07:28:55.228Z,-0.80
2019-02-15T07:31:23.866Z,-0.80
2019-02-15T07:33:52.444Z,-0.80
2019-02-15T07:36:21.092Z,-0.80
2019-02-15T07:38:49.747Z,-0.70
2019-02-15T07:41:18.226Z,-0.70
2019-02-15T07:43:47.078Z,-0.70
2019-02-15T07:46:15.622Z,-0.70
2019-02-15T07:48:44.211Z,-0.70
2019-02-15T07:51:12.948Z,-0.60
2019-02-15T07:53:41.590Z,-0.60
2019-02-15T07:56:10.164Z,-0.50
2019-02-15T07:58:38.778Z,-0.50
2019-02-15T08:01:07.348Z,-0.40
2019-02-15T08:03:37.588Z,-0.40
2019-02-15T08:06:06.484Z,-0.40
2019-02-15T08:08:34.946Z,-0.30
2019-02-15T08:11:03.470Z,-0.30
2019-02-15T08:13:31.931Z,-0.20
2019-02-15T08:16:00.548Z,-0.20
2019-02-15T08:18:29.195Z,-0.10
2019-02-15T08:20:57.892Z,-0.10
2019-02-15T08:23:26.564Z,0.00
2019-02-15T08:25:55.140Z,0.10
2019-02-15T08:28:23.798Z,0.20
2019-02-15T08:30:52.372Z,0.20
2019-02-15T08:33:20.953Z,0.30
2019-02-15T08:35:49.607Z,0.40
2019-02-15T08:38:18.170Z,0.40
2019-02-15T08:40:46.676Z,0.50
2019-02-15T08:43:15.283Z,0.60
2019-02-15T08:45:43.860Z,0.70
2019-02-15T08:48:12.411Z,0.90
2019-02-15T08:50:41.020Z,1.00
2019-02-15T08:53:09.587Z,1.00
2019-02-15T08:55:38.260Z,1.20
2019-02-15T08:58:06.863Z,1.40
2019-02-15T09:00:35.519Z,1.60
2019-02-15T09:03:04.104Z,1.90
2019-02-15T09:05:32.694Z,2.10
2019-02-15T09:08:01.326Z,2.40
2019-02-15T09:10:29.893Z,2.50
2019-02-15T09:12:58.429Z,2.50
2019-02-15T09:15:27.093Z,2.60
2019-02-15T09:17:55.733Z,2.70
2019-02-15T09:20:24.437Z,2.90
2019-02-15T09:22:53.095Z,3.10
2019-02-15T09:25:21.748Z,3.30
2019-02-15T09:27:52.036Z,3.40
2019-02-15T09:30:20.603Z,3.50
2019-02-15T09:32:49.119Z,3.70
2019-02-15T09:35:17.661Z,4.00
2019-02-15T09:37:46.252Z,4.20
2019-02-15T09:40:14.834Z,4.40
2019-02-15T09:42:43.467Z,4.60
2019-02-15T09:45:12.443Z,4.80
2019-02-15T09:47:41.067Z,5.10
2019-02-15T09:50:12.269Z,5.10
2019-02-15T09:52:40.741Z,5.30
2019-02-15T09:55:09.339Z,5.40
2019-02-15T09:57:37.967Z,5.50
2019-02-15T10:00:08.806Z,5.60
2019-02-15T10:02:37.475Z,5.60
2019-02-15T10:05:07.492Z,5.70
2019-02-15T10:07:36.076Z,5.80
2019-02-15T10:10:07.098Z,6.00
2019-02-15T10:12:35.725Z,6.10
2019-02-15T10:15:05.964Z,6.20
2019-02-15T10:17:34.628Z,6.50
2019-02-15T10:20:03.524Z,6.60
2019-02-15T10:22:32.113Z,6.70
2019-02-15T10:25:00.748Z,6.80
2019-02-15T10:27:29.445Z,6.90
2019-02-15T10:29:58.050Z,7.00
2019-02-15T10:32:26.643Z,7.20
2019-02-15T10:34:55.262Z,7.40
2019-02-15T10:37:23.918Z,7.40
2019-02-15T10:39:52.483Z,7.60
2019-02-15T10:42:21.198Z,7.70
2019-02-15T10:44:49.828Z,7.70
2019-02-15T10:47:24.743Z,7.80
2019-02-15T10:49:48.731Z,8.10
2019-02-15T10:52:17.312Z,8.40
2019-02-15T10:54:45.901Z,8.60
2019-02-15T10:57:16.278Z,8.80
2019-02-15T10:59:44.786Z,8.90
2019-02-15T11:02:13.364Z,9.10
2019-02-15T11:04:42.020Z,9.20
2019-02-15T11:07:10.598Z,9.10
2019-02-15T11:09:39.178Z,9.10
2019-02-15T11:12:07.830Z,9.10
2019-02-15T11:14:36.246Z,9.10
2019-02-15T11:17:04.822Z,9.20
2019-02-15T11:19:33.373Z,9.20
2019-02-15T11:22:02.036Z,9.40
2019-02-15T11:24:30.708Z,9.50
2019-02-15T11:26:59.404Z,9.60
2019-02-15T11:29:28.002Z,9.70
2019-02-15T11:31:56.637Z,9.90
2019-02-15T11:34:25.348Z,10.20
2019-02-15T11:36:54.007Z,10.40
2019-02-15T11:39:22.667Z,10.50
2019-02-15T11:41:51.303Z,10.70
2019-02-15T11:44:19.838Z,10.80
2019-02-15T11:46:56.589Z,10.90
2019-02-15T11:49:18.742Z,11.00
2019-02-15T11:51:47.384Z,11.00
2019-02-15T11:54:23.365Z,11.00
2019-02-15T11:56:46.260Z,10.90
2019-02-15T11:59:14.829Z,10.90
2019-02-15T12:01:43.412Z,11.00
2019-02-15T12:04:12.060Z,11.00
2019-02-15T12:06:40.467Z,10.90
2019-02-15T12:09:09.140Z,10.90
2019-02-15T12:11:37.764Z,10.90
2019-02-15T12:14:06.356Z,10.80
2019-02-15T12:16:35.018Z,10.80
2019-02-15T12:19:03.677Z,10.80
2019-02-15T12:21:32.228Z,10.80
2019-02-15T12:24:00.879Z,10.80
2019-02-15T12:26:29.556Z,10.80
2019-02-15T12:28:58.212Z,10.80
2019-02-15T12:31:26.873Z,10.80
2019-02-15T12:33:55.525Z,10.70
2019-02-15T12:36:24.029Z,10.70
2019-02-15T12:38:52.613Z,10.70
2019-02-15T12:41:21.287Z,10.70
2019-02-15T12:43:49.956Z,10.50
2019-02-15T12:46:18.575Z,10.50
2019-02-15T12:48:47.299Z,10.40
2019-02-15T12:51:15.872Z,10.40
2019-02-15T12:53:44.421Z,10.40
2019-02-15T12:56:13.123Z,10.50
2019-02-15T12:58:41.724Z,10.50
2019-02-15T13:01:10.358Z,10.50
2019-02-15T13:03:39.004Z,10.60
2019-02-15T13:06:07.660Z,10.60
2019-02-15T13:08:36.252Z,10.60
2019-02-15T13:11:04.791Z,10.50
2019-02-15T13:13:33.358Z,10.50
2019-02-15T13:16:02.014Z,10.40
2019-02-15T13:18:30.683Z,10.40
2019-02-15T13:20:59.252Z,10.40
2019-02-15T13:23:27.919Z,10.40
2019-02-15T13:25:56.662Z,10.40
2019-02-15T13:28:25.227Z,10.50
2019-02-15T13:30:53.884Z,10.50
2019-02-15T13:33:22.605Z,10.60
2019-02-15T13:35:51.262Z,10.60
2019-02-15T13:38:19.940Z,10.50
2019-02-15T13:40:48.612Z,10.40
2019-02-15T13:43:17.260Z,10.30
2019-02-15T13:45:45.782Z,10.30
2019-02-15T13:48:14.443Z,10.30
2019-02-15T13:50:44.277Z,10.20
2019-02-15T13:53:12.919Z,10.20
2019-02-15T13:55:41.644Z,10.20
2019-02-15T13:58:10.283Z,10.20
2019-02-15T14:00:38.822Z,10.20
2019-02-15T14:03:07.532Z,10.20
2019-02-15T14:05:36.181Z,10.20
2019-02-15T14:08:04.852Z,10.20
2019-02-15T14:10:33.574Z,10.20
2019-02-15T14:13:02.231Z,10.20
2019-02-15T14:15:30.798Z,10.20
2019-02-15T14:17:59.441Z,10.20
2019-02-15T14:20:28.092Z,10.30
2019-02-15T14:22:56.766Z,10.30
2019-02-15T14:25:26.005Z,10.30
2019-02-15T14:27:54.662Z,10.30
2019-02-15T14:30:23.302Z,10.40
2019-02-15T14:32:53.846Z,10.40
2019-02-15T14:35:22.406Z,10.50
2019-02-15T14:37:51.055Z,10.50
2019-02-15T14:40:19.700Z,10.50
2019-02-15T14:42:49.325Z,10.60
2019-02-15T14:45:18.124Z,10.60
2019-02-15T14:47:54.525Z,10.60
2019-02-15T14:50:16.925Z,10.60
2019-02-15T14:52:45.421Z,10.60
2019-02-15T14:55:13.986Z,10.70
2019-02-15T14:57:42.615Z,10.70
2019-02-15T15:00:12.893Z,10.70
2019-02-15T15:02:41.501Z,10.70
2019-02-15T15:05:11.714Z,10.70
2019-02-15T15:07:40.301Z,10.70
2019-02-15T15:10:11.852Z,10.70
2019-02-15T15:12:40.153Z,10.70
2019-02-15T15:15:13.143Z,10.70
2019-02-15T15:17:41.612Z,10.60
2019-02-15T15:20:14.068Z,10.60
2019-02-15T15:22:42.652Z,10.60
2019-02-15T15:25:17.155Z,10.50
2019-02-15T15:27:45.727Z,10.50
2019-02-15T15:30:16.228Z,10.50
2019-02-15T15:32:44.741Z,10.40
2019-02-15T15:35:13.212Z,10.40
2019-02-15T15:37:41.773Z,10.20
2019-02-15T15:40:14.685Z,10.10
2019-02-15T15:42:43.276Z,10.00
2019-02-15T15:45:12.509Z,9.90
2019-02-15T15:47:41.198Z,9.70
2019-02-15T15:50:12.426Z,9.60
2019-02-15T15:52:40.916Z,9.40
2019-02-15T15:55:11.116Z,9.30
2019-02-15T15:57:39.689Z,9.00
2019-02-15T16:00:11.220Z,8.80
2019-02-15T16:02:39.959Z,8.70
2019-02-15T16:05:09.101Z,8.60
2019-02-15T16:07:37.667Z,8.50
2019-02-15T16:10:12.445Z,8.40
2019-02-15T16:12:41.114Z,8.20
2019-02-15T16:15:13.244Z,8.10
2019-02-15T16:17:42.077Z,8.10
2019-02-15T16:20:11.900Z,8.00
2019-02-15T16:22:40.411Z,7.90
2019-02-15T16:25:09.725Z,7.80
2019-02-15T16:27:38.307Z,7.70
2019-02-15T16:30:12.527Z,7.50
2019-02-15T16:32:41.162Z,7.40
2019-02-15T16:35:09.902Z,7.30
2019-02-15T16:37:38.534Z,7.20
2019-02-15T16:40:14.262Z,7.10
2019-02-15T16:42:42.901Z,7.00
2019-02-15T16:45:13.742Z,6.80
2019-02-15T16:47:42.422Z,6.70
2019-02-15T16:50:11.278Z,6.60
2019-02-15T16:52:39.823Z,6.50
2019-02-15T16:55:12.752Z,6.40
2019-02-15T16:57:39.438Z,6.30
2019-02-15T17:00:10.869Z,6.20
2019-02-15T17:02:39.646Z,6.10
2019-02-15T17:05:08.164Z,6.00
2019-02-15T17:07:36.820Z,6.00
2019-02-15T17:10:08.075Z,5.90
2019-02-15T17:12:36.741Z,5.80
2019-02-15T17:15:08.181Z,5.70
2019-02-15T17:17:36.917Z,5.60
2019-02-15T17:20:07.643Z,5.50
2019-02-15T17:22:36.222Z,5.50
2019-02-15T17:25:07.141Z,5.40
2019-02-15T17:27:35.794Z,5.30
2019-02-15T17:30:06.732Z,5.30
2019-02-15T17:32:35.431Z,5.20
2019-02-15T17:35:04.421Z,5.20
2019-02-15T17:37:32.951Z,5.10
2019-02-15T17:40:01.612Z,5.00
2019-02-15T17:42:30.332Z,4.90
2019-02-15T17:44:59.748Z,4.80
2019-02-15T17:47:28.445Z,4.70
2019-02-15T17:49:57.036Z,4.70
2019-02-15T17:52:25.662Z,4.60
2019-02-15T17:54:54.483Z,4.60
2019-02-15T17:57:23.125Z,4.50
2019-02-15T17:59:51.669Z,4.50
2019-02-15T18:02:20.392Z,4.40
2019-02-15T18:04:48.951Z,4.40
2019-02-15T18:07:17.518Z,4.30
2019-02-15T18:09:46.212Z,4.30
2019-02-15T18:12:14.902Z,4.20
2019-02-15T18:14:43.560Z,4.20
2019-02-15T18:17:12.260Z,4.10
2019-02-15T18:19:47.147Z,4.00
2019-02-15T18:22:11.036Z,4.00
2019-02-15T18:24:39.733Z,4.00
2019-02-15T18:27:08.405Z,3.90
2019-02-15T18:29:37.060Z,3.90
2019-02-15T18:32:05.821Z,3.80
2019-02-15T18:34:34.436Z,3.80
2019-02-15T18:37:03.149Z,3.70
2019-02-15T18:39:31.909Z,3.70
2019-02-15T18:42:00.619Z,3.70
2019-02-15T18:44:29.317Z,3.60
2019-02-15T18:46:58.904Z,3.60
2019-02-15T18:49:27.548Z,3.60
2019-02-15T18:51:56.186Z,3.50
2019-02-15T18:54:24.860Z,3.50
2019-02-15T18:56:53.488Z,3.40
2019-02-15T18:59:22.132Z,3.40
2019-02-15T19:01:50.733Z,3.30
2019-02-15T19:04:19.241Z,3.30
2019-02-15T19:06:48.107Z,3.30
2019-02-15T19:09:16.677Z,3.20
2019-02-15T19:11:45.293Z,3.20
2019-02-15T19:14:13.773Z,3.20
2019-02-15T19:16:42.341Z,3.10
2019-02-15T19:19:10.876Z,3.10
2019-02-15T19:21:39.394Z,3.10
2019-02-15T19:24:08.029Z,3.00
2019-02-15T19:26:36.516Z,3.00
2019-02-15T19:29:05.172Z,3.00
2019-02-15T19:31:33.763Z,2.90
2019-02-15T19:34:02.324Z,2.90
2019-02-15T19:36:30.934Z,2.90
2019-02-15T19:38:59.609Z,2.80
2019-02-15T19:41:28.180Z,2.70
2019-02-15T19:43:56.692Z,2.70
2019-02-15T19:46:25.340Z,2.70
2019-02-15T19:48:53.882Z,2.70
2019-02-15T19:51:22.399Z,2.60
2019-02-15T19:53:50.940Z,2.60
2019-02-15T19:56:19.444Z,2.60
2019-02-15T19:58:48.018Z,2.60
2019-02-15T20:01:16.748Z,2.50
2019-02-15T20:03:45.412Z,2.50
2019-02-15T20:06:14.044Z,2.40
2019-02-15T20:08:42.675Z,2.40
2019-02-15T20:11:11.228Z,2.30
2019-02-15T20:13:39.885Z,2.30
2019-02-15T20:16:08.620Z,2.20
2019-02-15T20:18:37.171Z,2.20
2019-02-15T20:21:05.749Z,2.20
2019-02-15T20:23:34.321Z,2.20
2019-02-15T20:26:02.972Z,2.10
2019-02-15T20:28:31.506Z,2.10
2019-02-15T20:31:00.154Z,2.10
2019-02-15T20:33:28.653Z,2.00
2019-02-15T20:35:57.236Z,2.00
2019-02-15T20:38:25.853Z,2.00
2019-02-15T20:40:54.435Z,2.00
2019-02-15T20:43:23.092Z,2.00
2019-02-15T20:45:51.708Z,2.00
2019-02-15T20:48:20.259Z,1.90
2019-02-15T20:50:49.732Z,1.90
2019-02-15T20:53:18.604Z,1.90
2019-02-15T20:55:47.324Z,1.80
2019-02-15T20:58:16.012Z,1.80
2019-02-15T21:00:44.571Z,1.80
2019-02-15T21:03:13.180Z,1.70
2019-02-15T21:05:41.828Z,1.70
2019-02-15T21:08:10.544Z,1.70
2019-02-15T21:10:39.106Z,1.60
2019-02-15T21:13:07.604Z,1.60
2019-02-15T21:15:36.172Z,1.60
2019-02-15T21:18:05.771Z,1.50
2019-02-15T21:20:34.396Z,1.50
2019-02-15T21:23:03.124Z,1.50
2019-02-15T21:25:31.749Z,1.40
2019-02-15T21:28:00.405Z,1.40
2019-02-15T21:30:29.028Z,1.40
2019-02-15T21:32:57.540Z,1.40
2019-02-15T21:35:26.052Z,1.40
2019-02-15T21:37:54.701Z,1.40
2019-02-15T21:40:23.235Z,1.40
2019-02-15T21:42:52.285Z,1.40
2019-02-15T21:45:20.965Z,1.30
2019-02-15T21:47:49.460Z,1.30
2019-02-15T21:50:18.114Z,1.20
2019-02-15T21:52:46.813Z,1.20
2019-02-15T21:55:16.276Z,1.20
2019-02-15T21:57:44.812Z,1.20
2019-02-15T22:00:21.420Z,1.20
2019-02-15T22:02:50.140Z,1.10
2019-02-15T22:05:18.759Z,1.10
2019-02-15T22:07:47.324Z,1.10
2019-02-15T22:10:15.786Z,1.10
2019-02-15T22:12:44.291Z,1.10
2019-02-15T22:15:17.205Z,1.00
2019-02-15T22:17:45.764Z,1.00
2019-02-15T22:20:16.100Z,1.00
2019-02-15T22:22:44.820Z,1.00
2019-02-15T22:25:13.318Z,1.00
2019-02-15T22:27:41.869Z,1.00
2019-02-15T22:30:13.226Z,0.90
2019-02-15T22:32:42.581Z,0.90
2019-02-15T22:35:11.392Z,0.90
2019-02-15T22:37:39.986Z,0.90
2019-02-15T22:40:29.188Z,0.90
2019-02-15T22:43:00.564Z,0.90
2019-02-15T22:45:29.188Z,0.80
2019-02-15T22:47:57.669Z,0.80
2019-02-15T22:50:35.338Z,0.90
2019-02-15T22:52:56.508Z,0.90
2019-02-15T22:55:25.155Z,0.80
2019-02-15T22:57:53.649Z,0.80
2019-02-15T23:00:46.668Z,0.80
2019-02-15T23:03:15.956Z,0.80
2019-02-15T23:05:44.395Z,0.70
2019-02-15T23:08:12.970Z,0.80
2019-02-15T23:10:41.587Z,0.70
2019-02-15T23:13:10.134Z,0.70
2019-02-15T23:15:38.644Z,0.70
2019-02-15T23:18:07.290Z,0.70
2019-02-15T23:20:44.611Z,0.70
2019-02-15T23:23:06.075Z,0.70
2019-02-15T23:25:34.694Z,0.70
2019-02-15T23:28:03.094Z,0.70
2019-02-15T23:30:31.580Z,0.70
2019-02-15T23:33:00.212Z,0.70
2019-02-15T23:35:28.652Z,0.70
2019-02-15T23:37:57.162Z,0.60
2019-02-15T23:40:25.762Z,0.60
2019-02-15T23:42:54.252Z,0.60
2019-02-15T23:45:22.803Z,0.50
2019-02-15T23:47:51.349Z,0.50
2019-02-15T23:50:20.860Z,0.60
2019-02-15T23:52:49.443Z,0.50
2019-02-15T23:55:18.121Z,0.50
2019-02-15T23:57:46.692Z,0.50
